BEE13M ELLX-EGLC
Flight info
| Callsign | BEE13M |
|---|---|
| Flight time | 1h 11m |
| Altitude | 24000 |
| Route | DIK N852 TERLA L608 SUMUM |
| Aircraft | DH8D/M-SDE2E3FGRY/H |
Departure
| Time | 2026-05-04 19:16 |
|---|---|
| Airport | Luxembourg-Findel International Airport (ELLX) |
Arrival
| Time | 2026-05-04 20:27 |
|---|---|
| Airport | London City Airport (EGLC) |
| Time | Latitude | Longitude | Altitude | Speed | Heading |
|---|---|---|---|---|---|
| 2026-05-04 18:49 | 49.63155 | 6.21386 | 1238 ft | 0 kts | 60° |
| 2026-05-04 19:07 | 49.63155 | 6.21387 | 1238 ft | 0 kts | 60° |
| 2026-05-04 19:07 | 49.63155 | 6.21386 | 1238 ft | 0 kts | 60° |
| 2026-05-04 19:08 | 49.63148 | 6.21370 | 1238 ft | 2 kts | 61° |
| 2026-05-04 19:08 | 49.63144 | 6.21349 | 1238 ft | 2 kts | 84° |
| 2026-05-04 19:08 | 49.63145 | 6.21326 | 1239 ft | 2 kts | 107° |
| 2026-05-04 19:08 | 49.63152 | 6.21307 | 1240 ft | 2 kts | 131° |
| 2026-05-04 19:09 | 49.63161 | 6.21294 | 1241 ft | 1 kts | 150° |
| 2026-05-04 19:09 | 49.63162 | 6.21293 | 1241 ft | 0 kts | 150° |
| 2026-05-04 19:10 | 49.63137 | 6.21317 | 1239 ft | 6 kts | 148° |
| 2026-05-04 19:10 | 49.63089 | 6.21358 | 1236 ft | 11 kts | 151° |
| 2026-05-04 19:11 | 49.63025 | 6.21427 | 1231 ft | 11 kts | 115° |
| 2026-05-04 19:11 | 49.63040 | 6.21525 | 1229 ft | 7 kts | 55° |
| 2026-05-04 19:11 | 49.63074 | 6.21632 | 1228 ft | 12 kts | 64° |
| 2026-05-04 19:11 | 49.63110 | 6.21749 | 1225 ft | 12 kts | 65° |
| 2026-05-04 19:12 | 49.63149 | 6.21874 | 1222 ft | 11 kts | 64° |
| 2026-05-04 19:12 | 49.63213 | 6.22077 | 1219 ft | 12 kts | 65° |
| 2026-05-04 19:12 | 49.63250 | 6.22202 | 1214 ft | 13 kts | 63° |
| 2026-05-04 19:13 | 49.63294 | 6.22339 | 1210 ft | 16 kts | 64° |
| 2026-05-04 19:13 | 49.63347 | 6.22505 | 1207 ft | 16 kts | 62° |
| 2026-05-04 19:13 | 49.63398 | 6.22650 | 1206 ft | 14 kts | 60° |
| 2026-05-04 19:13 | 49.63439 | 6.22753 | 1209 ft | 13 kts | 61° |
| 2026-05-04 19:14 | 49.63486 | 6.22886 | 1211 ft | 12 kts | 60° |
| 2026-05-04 19:14 | 49.63532 | 6.23007 | 1215 ft | 12 kts | 59° |
| 2026-05-04 19:14 | 49.63580 | 6.23136 | 1219 ft | 15 kts | 60° |
| 2026-05-04 19:14 | 49.63646 | 6.23314 | 1220 ft | 17 kts | 59° |
| 2026-05-04 19:15 | 49.63641 | 6.23456 | 1218 ft | 14 kts | 150° |
| 2026-05-04 19:15 | 49.63534 | 6.23513 | 1217 ft | 16 kts | 199° |
| 2026-05-04 19:15 | 49.63443 | 6.23306 | 1217 ft | 53 kts | 239° |
| 2026-05-04 19:15 | 49.63115 | 6.22424 | 1204 ft | 131 kts | 239° |
| 2026-05-04 19:16 | 49.62623 | 6.21008 | 1387 ft | 160 kts | 241° |
| 2026-05-04 19:16 | 49.62126 | 6.19421 | 1808 ft | 174 kts | 243° |
| 2026-05-04 19:16 | 49.61586 | 6.17712 | 2265 ft | 182 kts | 240° |
| 2026-05-04 19:16 | 49.60975 | 6.16014 | 2785 ft | 183 kts | 235° |
| 2026-05-04 19:17 | 49.60297 | 6.14366 | 3361 ft | 183 kts | 235° |
| 2026-05-04 19:17 | 49.59609 | 6.12671 | 3733 ft | 196 kts | 236° |
| 2026-05-04 19:17 | 49.58863 | 6.10804 | 3899 ft | 218 kts | 236° |
| 2026-05-04 19:17 | 49.58035 | 6.08696 | 3978 ft | 240 kts | 237° |
| 2026-05-04 19:18 | 49.57218 | 6.06574 | 4644 ft | 232 kts | 237° |
| 2026-05-04 19:18 | 49.56603 | 6.04392 | 5348 ft | 228 kts | 256° |
| 2026-05-04 19:18 | 49.56687 | 6.01961 | 5843 ft | 236 kts | 283° |
| 2026-05-04 19:18 | 49.57532 | 5.99754 | 6307 ft | 247 kts | 310° |
| 2026-05-04 19:19 | 49.58976 | 5.98320 | 6814 ft | 256 kts | 338° |
| 2026-05-04 19:19 | 49.60738 | 5.98191 | 7305 ft | 261 kts | 13° |
| 2026-05-04 19:19 | 49.62471 | 5.99099 | 7826 ft | 263 kts | 20° |
| 2026-05-04 19:19 | 49.64175 | 6.00089 | 8329 ft | 266 kts | 21° |
| 2026-05-04 19:20 | 49.65929 | 6.01119 | 8846 ft | 270 kts | 21° |
| 2026-05-04 19:20 | 49.67661 | 6.02138 | 9400 ft | 270 kts | 21° |
| 2026-05-04 19:20 | 49.69400 | 6.03163 | 9874 ft | 272 kts | 21° |
| 2026-05-04 19:20 | 49.71179 | 6.04210 | 10342 ft | 276 kts | 21° |
| 2026-05-04 19:21 | 49.72975 | 6.05269 | 10859 ft | 278 kts | 21° |
| 2026-05-04 19:21 | 49.74773 | 6.06329 | 11371 ft | 279 kts | 21° |
| 2026-05-04 19:21 | 49.76599 | 6.07406 | 11808 ft | 282 kts | 20° |
| 2026-05-04 19:21 | 49.78401 | 6.08470 | 12224 ft | 284 kts | 20° |
| 2026-05-04 19:22 | 49.80260 | 6.09567 | 12677 ft | 285 kts | 20° |
| 2026-05-04 19:22 | 49.82110 | 6.10662 | 13104 ft | 287 kts | 20° |
| 2026-05-04 19:22 | 49.83976 | 6.11766 | 13513 ft | 288 kts | 20° |
| 2026-05-04 19:22 | 49.85894 | 6.12608 | 13820 ft | 289 kts | 2° |
| 2026-05-04 19:23 | 49.87821 | 6.12095 | 14145 ft | 284 kts | 337° |
| 2026-05-04 19:23 | 49.89674 | 6.11047 | 14494 ft | 284 kts | 336° |
| 2026-05-04 19:23 | 49.91536 | 6.09979 | 14749 ft | 285 kts | 336° |
| 2026-05-04 19:23 | 49.93365 | 6.08929 | 14963 ft | 286 kts | 336° |
| 2026-05-04 19:24 | 49.95251 | 6.07844 | 15134 ft | 286 kts | 336° |
| 2026-05-04 19:24 | 49.97116 | 6.06774 | 15218 ft | 288 kts | 336° |
| 2026-05-04 19:24 | 49.98986 | 6.05701 | 15335 ft | 286 kts | 336° |
| 2026-05-04 19:24 | 50.00811 | 6.04648 | 15401 ft | 283 kts | 336° |
| 2026-05-04 19:25 | 50.02651 | 6.03597 | 15445 ft | 281 kts | 336° |
| 2026-05-04 19:25 | 50.04485 | 6.02541 | 15700 ft | 275 kts | 336° |
| 2026-05-04 19:25 | 50.06190 | 6.01569 | 16514 ft | 256 kts | 336° |
| 2026-05-04 19:25 | 50.07847 | 6.00618 | 16992 ft | 252 kts | 336° |
| 2026-05-04 19:26 | 50.09488 | 5.99670 | 17292 ft | 254 kts | 336° |
| 2026-05-04 19:26 | 50.11103 | 5.98737 | 17559 ft | 255 kts | 336° |
| 2026-05-04 19:26 | 50.12775 | 5.97770 | 17829 ft | 257 kts | 336° |
| 2026-05-04 19:26 | 50.14452 | 5.96802 | 18119 ft | 257 kts | 336° |
| 2026-05-04 19:27 | 50.16126 | 5.95835 | 18384 ft | 258 kts | 336° |
| 2026-05-04 19:27 | 50.17798 | 5.94869 | 18652 ft | 260 kts | 336° |
| 2026-05-04 19:27 | 50.19390 | 5.93948 | 18926 ft | 259 kts | 336° |
| 2026-05-04 19:27 | 50.21119 | 5.92949 | 19166 ft | 260 kts | 336° |
| 2026-05-04 19:28 | 50.22802 | 5.91974 | 19357 ft | 262 kts | 336° |
| 2026-05-04 19:28 | 50.24513 | 5.90981 | 19573 ft | 264 kts | 336° |
| 2026-05-04 19:28 | 50.26238 | 5.89980 | 19816 ft | 263 kts | 336° |
| 2026-05-04 19:28 | 50.27953 | 5.88984 | 20004 ft | 265 kts | 336° |
| 2026-05-04 19:29 | 50.29688 | 5.87976 | 20216 ft | 266 kts | 336° |
| 2026-05-04 19:29 | 50.31426 | 5.86966 | 20446 ft | 267 kts | 336° |
| 2026-05-04 19:29 | 50.33151 | 5.85962 | 20684 ft | 267 kts | 336° |
| 2026-05-04 19:29 | 50.34908 | 5.84939 | 20877 ft | 269 kts | 336° |
| 2026-05-04 19:30 | 50.36658 | 5.83919 | 21068 ft | 269 kts | 336° |
| 2026-05-04 19:30 | 50.38414 | 5.82895 | 21268 ft | 270 kts | 336° |
| 2026-05-04 19:30 | 50.40162 | 5.81876 | 21461 ft | 270 kts | 336° |
| 2026-05-04 19:30 | 50.41927 | 5.80845 | 21630 ft | 271 kts | 336° |
| 2026-05-04 19:31 | 50.43678 | 5.79821 | 21783 ft | 272 kts | 336° |
| 2026-05-04 19:31 | 50.45449 | 5.78786 | 21970 ft | 272 kts | 336° |
| 2026-05-04 19:31 | 50.47219 | 5.77751 | 22138 ft | 272 kts | 336° |
| 2026-05-04 19:31 | 50.48996 | 5.76710 | 22270 ft | 273 kts | 336° |
| 2026-05-04 19:32 | 50.50727 | 5.75695 | 22423 ft | 273 kts | 336° |
| 2026-05-04 19:32 | 50.52519 | 5.74643 | 22558 ft | 275 kts | 336° |
| 2026-05-04 19:32 | 50.53790 | 5.73897 | 22665 ft | 273 kts | 336° |
| 2026-05-04 19:32 | 50.55601 | 5.72834 | 22774 ft | 274 kts | 336° |
| 2026-05-04 19:33 | 50.56323 | 5.72409 | 22811 ft | 275 kts | 336° |
| 2026-05-04 19:33 | 50.61287 | 5.69724 | 23082 ft | 277 kts | 341° |
| 2026-05-04 19:34 | 50.64974 | 5.68065 | 23393 ft | 273 kts | 341° |
| 2026-05-04 19:34 | 50.66756 | 5.67202 | 23560 ft | 270 kts | 334° |
| 2026-05-04 19:34 | 50.68182 | 5.65477 | 23710 ft | 252 kts | 297° |
| 2026-05-04 19:34 | 50.68874 | 5.63014 | 23893 ft | 243 kts | 285° |
| 2026-05-04 19:35 | 50.69424 | 5.60479 | 23940 ft | 246 kts | 284° |
| 2026-05-04 19:35 | 50.69970 | 5.57895 | 23958 ft | 252 kts | 284° |
| 2026-05-04 19:35 | 50.70518 | 5.55259 | 23960 ft | 258 kts | 284° |
| 2026-05-04 19:35 | 50.71079 | 5.52542 | 23960 ft | 263 kts | 284° |
| 2026-05-04 19:36 | 50.71647 | 5.49758 | 23971 ft | 277 kts | 284° |
| 2026-05-04 19:36 | 50.72254 | 5.46767 | 23961 ft | 291 kts | 285° |
| 2026-05-04 19:36 | 50.72877 | 5.43687 | 23958 ft | 296 kts | 285° |
| 2026-05-04 19:36 | 50.73499 | 5.40595 | 23952 ft | 301 kts | 285° |
| 2026-05-04 19:37 | 50.74134 | 5.37433 | 23954 ft | 306 kts | 285° |
| 2026-05-04 19:37 | 50.74775 | 5.34230 | 23956 ft | 310 kts | 284° |
| 2026-05-04 19:37 | 50.75431 | 5.30945 | 23954 ft | 314 kts | 284° |
| 2026-05-04 19:37 | 50.76093 | 5.27627 | 23951 ft | 319 kts | 284° |
| 2026-05-04 19:38 | 50.76754 | 5.24308 | 23945 ft | 320 kts | 284° |
| 2026-05-04 19:38 | 50.77419 | 5.20957 | 23953 ft | 323 kts | 285° |
| 2026-05-04 19:38 | 50.78087 | 5.17587 | 23953 ft | 324 kts | 284° |
| 2026-05-04 19:38 | 50.78767 | 5.14154 | 23954 ft | 325 kts | 285° |
| 2026-05-04 19:39 | 50.79433 | 5.10777 | 23951 ft | 326 kts | 285° |
| 2026-05-04 19:39 | 50.80113 | 5.07327 | 23952 ft | 328 kts | 285° |
| 2026-05-04 19:39 | 50.80785 | 5.03912 | 23953 ft | 330 kts | 285° |
| 2026-05-04 19:39 | 50.81461 | 5.00411 | 23950 ft | 331 kts | 285° |
| 2026-05-04 19:40 | 50.82118 | 4.96964 | 23952 ft | 331 kts | 285° |
| 2026-05-04 19:40 | 50.82784 | 4.93464 | 23951 ft | 332 kts | 285° |
| 2026-05-04 19:40 | 50.83451 | 4.89956 | 23945 ft | 333 kts | 285° |
| 2026-05-04 19:40 | 50.84112 | 4.86472 | 23950 ft | 333 kts | 285° |
| 2026-05-04 19:41 | 50.84777 | 4.82964 | 23955 ft | 334 kts | 285° |
| 2026-05-04 19:41 | 50.85444 | 4.79438 | 23951 ft | 334 kts | 285° |
| 2026-05-04 19:41 | 50.86107 | 4.75931 | 23953 ft | 335 kts | 285° |
| 2026-05-04 19:41 | 50.86766 | 4.72438 | 23952 ft | 333 kts | 285° |
| 2026-05-04 19:42 | 50.87431 | 4.68908 | 23949 ft | 332 kts | 285° |
| 2026-05-04 19:42 | 50.88085 | 4.65423 | 23957 ft | 333 kts | 285° |
| 2026-05-04 19:42 | 50.88726 | 4.62006 | 23949 ft | 332 kts | 285° |
| 2026-05-04 19:42 | 50.89378 | 4.58521 | 23955 ft | 332 kts | 285° |
| 2026-05-04 19:43 | 50.90033 | 4.55050 | 23956 ft | 332 kts | 287° |
| 2026-05-04 19:43 | 50.91007 | 4.51717 | 23958 ft | 333 kts | 299° |
| 2026-05-04 19:43 | 50.92223 | 4.48557 | 23949 ft | 333 kts | 301° |
| 2026-05-04 19:43 | 50.93425 | 4.45467 | 23957 ft | 333 kts | 301° |
| 2026-05-04 19:44 | 50.94646 | 4.42323 | 23958 ft | 334 kts | 301° |
| 2026-05-04 19:44 | 50.95848 | 4.39213 | 23954 ft | 335 kts | 301° |
| 2026-05-04 19:44 | 50.97069 | 4.36044 | 23956 ft | 336 kts | 301° |
| 2026-05-04 19:44 | 50.98211 | 4.33076 | 23952 ft | 334 kts | 300° |
| 2026-05-04 19:45 | 50.99411 | 4.29948 | 23958 ft | 333 kts | 300° |
| 2026-05-04 19:45 | 51.00607 | 4.26821 | 23955 ft | 333 kts | 300° |
| 2026-05-04 19:45 | 51.01669 | 4.24045 | 23950 ft | 331 kts | 300° |
| 2026-05-04 19:45 | 51.02923 | 4.20759 | 23958 ft | 331 kts | 300° |
| 2026-05-04 19:46 | 51.04106 | 4.17650 | 23951 ft | 331 kts | 300° |
| 2026-05-04 19:46 | 51.05295 | 4.14531 | 23961 ft | 330 kts | 300° |
| 2026-05-04 19:46 | 51.06488 | 4.11386 | 23945 ft | 331 kts | 300° |
| 2026-05-04 19:46 | 51.07668 | 4.08271 | 23948 ft | 330 kts | 299° |
| 2026-05-04 19:47 | 51.08856 | 4.05132 | 23958 ft | 332 kts | 300° |
| 2026-05-04 19:47 | 51.10037 | 4.02009 | 23962 ft | 334 kts | 300° |
| 2026-05-04 19:47 | 51.11249 | 3.98800 | 23957 ft | 335 kts | 300° |
| 2026-05-04 19:47 | 51.12426 | 3.95682 | 23950 ft | 334 kts | 300° |
| 2026-05-04 19:48 | 51.13631 | 3.92484 | 23951 ft | 334 kts | 300° |
| 2026-05-04 19:48 | 51.14811 | 3.89346 | 23955 ft | 334 kts | 300° |
| 2026-05-04 19:48 | 51.16012 | 3.86149 | 23958 ft | 334 kts | 300° |
| 2026-05-04 19:48 | 51.17192 | 3.83006 | 23959 ft | 333 kts | 300° |
| 2026-05-04 19:49 | 51.18388 | 3.79815 | 23958 ft | 335 kts | 300° |
| 2026-05-04 19:49 | 51.19572 | 3.76654 | 23953 ft | 335 kts | 300° |
| 2026-05-04 19:49 | 51.20742 | 3.73525 | 23963 ft | 335 kts | 300° |
| 2026-05-04 19:49 | 51.21934 | 3.70336 | 23962 ft | 333 kts | 300° |
| 2026-05-04 19:50 | 51.23104 | 3.67198 | 23966 ft | 333 kts | 300° |
| 2026-05-04 19:50 | 51.24288 | 3.64022 | 23958 ft | 334 kts | 300° |
| 2026-05-04 19:50 | 51.25482 | 3.60810 | 23959 ft | 335 kts | 300° |
| 2026-05-04 19:50 | 51.26660 | 3.57638 | 23965 ft | 334 kts | 300° |
| 2026-05-04 19:51 | 51.27829 | 3.54489 | 23971 ft | 334 kts | 300° |
| 2026-05-04 19:51 | 51.28906 | 3.51587 | 23964 ft | 331 kts | 300° |
| 2026-05-04 19:51 | 51.30071 | 3.48438 | 23964 ft | 329 kts | 300° |
| 2026-05-04 19:51 | 51.31166 | 3.45473 | 23961 ft | 327 kts | 300° |
| 2026-05-04 19:52 | 51.32185 | 3.42718 | 23966 ft | 325 kts | 300° |
| 2026-05-04 19:53 | 51.35982 | 3.30886 | 23968 ft | 325 kts | 289° |
| 2026-05-04 19:53 | 51.37042 | 3.26367 | 23982 ft | 326 kts | 289° |
| 2026-05-04 19:53 | 51.37834 | 3.22989 | 23970 ft | 328 kts | 289° |
| 2026-05-04 19:53 | 51.38641 | 3.19555 | 23979 ft | 329 kts | 289° |
| 2026-05-04 19:54 | 51.39440 | 3.16153 | 23983 ft | 328 kts | 289° |
| 2026-05-04 19:54 | 51.40243 | 3.12737 | 23976 ft | 329 kts | 289° |
| 2026-05-04 19:54 | 51.41056 | 3.09279 | 23971 ft | 330 kts | 289° |
| 2026-05-04 19:54 | 51.41853 | 3.05897 | 23949 ft | 324 kts | 289° |
| 2026-05-04 19:55 | 51.42624 | 3.02601 | 23847 ft | 311 kts | 289° |
| 2026-05-04 19:55 | 51.43367 | 2.99417 | 23575 ft | 305 kts | 289° |
| 2026-05-04 19:55 | 51.44107 | 2.96244 | 23145 ft | 305 kts | 289° |
| 2026-05-04 19:55 | 51.44844 | 2.93080 | 22739 ft | 310 kts | 289° |
| 2026-05-04 19:56 | 51.45604 | 2.89834 | 22685 ft | 308 kts | 290° |
| 2026-05-04 19:56 | 51.46347 | 2.86650 | 22513 ft | 304 kts | 290° |
| 2026-05-04 19:56 | 51.47086 | 2.83469 | 22252 ft | 303 kts | 290° |
| 2026-05-04 19:56 | 51.47815 | 2.80337 | 22034 ft | 298 kts | 290° |
| 2026-05-04 19:57 | 51.48522 | 2.77287 | 21987 ft | 288 kts | 290° |
| 2026-05-04 19:57 | 51.49219 | 2.74283 | 21989 ft | 289 kts | 290° |
| 2026-05-04 19:57 | 51.49930 | 2.71233 | 21995 ft | 298 kts | 290° |
| 2026-05-04 19:57 | 51.50663 | 2.68078 | 21993 ft | 306 kts | 290° |
| 2026-05-04 19:58 | 51.51408 | 2.64863 | 21990 ft | 313 kts | 290° |
| 2026-05-04 19:58 | 51.52173 | 2.61554 | 21991 ft | 318 kts | 289° |
| 2026-05-04 19:58 | 51.52942 | 2.58220 | 21992 ft | 323 kts | 289° |
| 2026-05-04 19:58 | 51.53723 | 2.54835 | 21988 ft | 325 kts | 289° |
| 2026-05-04 19:59 | 51.54523 | 2.51430 | 21986 ft | 328 kts | 292° |
| 2026-05-04 19:59 | 51.55803 | 2.48402 | 21992 ft | 332 kts | 315° |
| 2026-05-04 19:59 | 51.57468 | 2.45841 | 21966 ft | 333 kts | 309° |
| 2026-05-04 19:59 | 51.58459 | 2.42516 | 21984 ft | 330 kts | 281° |
| 2026-05-04 20:00 | 51.58362 | 2.38880 | 22010 ft | 328 kts | 256° |
| 2026-05-04 20:00 | 51.57722 | 2.35422 | 21959 ft | 318 kts | 253° |
| 2026-05-04 20:00 | 51.57159 | 2.32098 | 21707 ft | 301 kts | 255° |
| 2026-05-04 20:00 | 51.56687 | 2.28858 | 21234 ft | 292 kts | 257° |
| 2026-05-04 20:01 | 51.56294 | 2.25709 | 20764 ft | 285 kts | 258° |
| 2026-05-04 20:01 | 51.55960 | 2.22615 | 20306 ft | 286 kts | 260° |
| 2026-05-04 20:01 | 51.55661 | 2.19436 | 19808 ft | 289 kts | 261° |
| 2026-05-04 20:01 | 51.55394 | 2.16272 | 19300 ft | 289 kts | 262° |
| 2026-05-04 20:02 | 51.55154 | 2.13166 | 18813 ft | 289 kts | 262° |
| 2026-05-04 20:02 | 51.54926 | 2.09986 | 18315 ft | 290 kts | 263° |
| 2026-05-04 20:02 | 51.54721 | 2.06995 | 17851 ft | 290 kts | 263° |
| 2026-05-04 20:02 | 51.54516 | 2.03878 | 17367 ft | 290 kts | 263° |
| 2026-05-04 20:03 | 51.54315 | 2.00733 | 16878 ft | 290 kts | 264° |
| 2026-05-04 20:03 | 51.54116 | 1.97542 | 16450 ft | 288 kts | 264° |
| 2026-05-04 20:03 | 51.53923 | 1.94399 | 16166 ft | 281 kts | 264° |
| 2026-05-04 20:03 | 51.53735 | 1.91329 | 15834 ft | 278 kts | 264° |
| 2026-05-04 20:04 | 51.53549 | 1.88255 | 15498 ft | 274 kts | 265° |
| 2026-05-04 20:04 | 51.53368 | 1.85256 | 15180 ft | 270 kts | 265° |
| 2026-05-04 20:04 | 51.53188 | 1.82274 | 14851 ft | 266 kts | 265° |
| 2026-05-04 20:04 | 51.53012 | 1.79347 | 14536 ft | 263 kts | 265° |
| 2026-05-04 20:05 | 51.52838 | 1.76433 | 14283 ft | 264 kts | 265° |
| 2026-05-04 20:05 | 51.52660 | 1.73454 | 14038 ft | 267 kts | 265° |
| 2026-05-04 20:05 | 51.52484 | 1.70514 | 13801 ft | 268 kts | 265° |
| 2026-05-04 20:05 | 51.52304 | 1.67559 | 13551 ft | 266 kts | 265° |
| 2026-05-04 20:06 | 51.52123 | 1.64582 | 13256 ft | 268 kts | 265° |
| 2026-05-04 20:06 | 51.51943 | 1.61639 | 13067 ft | 266 kts | 266° |
| 2026-05-04 20:06 | 51.51762 | 1.58694 | 12786 ft | 265 kts | 266° |
| 2026-05-04 20:06 | 51.51580 | 1.55751 | 12438 ft | 265 kts | 266° |
| 2026-05-04 20:07 | 51.51401 | 1.52846 | 12173 ft | 262 kts | 266° |
| 2026-05-04 20:07 | 51.51220 | 1.49930 | 11926 ft | 260 kts | 266° |
| 2026-05-04 20:07 | 51.51041 | 1.47071 | 11671 ft | 259 kts | 266° |
| 2026-05-04 20:07 | 51.50865 | 1.44242 | 11399 ft | 258 kts | 266° |
| 2026-05-04 20:08 | 51.50684 | 1.41365 | 11119 ft | 257 kts | 266° |
| 2026-05-04 20:08 | 51.50507 | 1.38554 | 10855 ft | 257 kts | 265° |
| 2026-05-04 20:08 | 51.50328 | 1.35714 | 10593 ft | 256 kts | 266° |
| 2026-05-04 20:08 | 51.50149 | 1.32880 | 10342 ft | 253 kts | 265° |
| 2026-05-04 20:09 | 51.49969 | 1.30059 | 10015 ft | 255 kts | 265° |
| 2026-05-04 20:09 | 51.49789 | 1.27250 | 9802 ft | 252 kts | 265° |
| 2026-05-04 20:09 | 51.49615 | 1.24535 | 9548 ft | 250 kts | 265° |
| 2026-05-04 20:09 | 51.49450 | 1.21989 | 9271 ft | 250 kts | 265° |
| 2026-05-04 20:10 | 51.49287 | 1.19460 | 9015 ft | 249 kts | 265° |
| 2026-05-04 20:10 | 51.49107 | 1.16690 | 8750 ft | 247 kts | 265° |
| 2026-05-04 20:10 | 51.48933 | 1.14013 | 8398 ft | 250 kts | 265° |
| 2026-05-04 20:10 | 51.48775 | 1.11593 | 8190 ft | 247 kts | 265° |
| 2026-05-04 20:11 | 51.48593 | 1.08812 | 7893 ft | 245 kts | 265° |
| 2026-05-04 20:11 | 51.48417 | 1.06141 | 7609 ft | 246 kts | 265° |
| 2026-05-04 20:11 | 51.48239 | 1.03435 | 7328 ft | 246 kts | 265° |
| 2026-05-04 20:11 | 51.48058 | 1.00719 | 7061 ft | 243 kts | 265° |
| 2026-05-04 20:12 | 51.47894 | 0.98262 | 6742 ft | 243 kts | 265° |
| 2026-05-04 20:12 | 51.47718 | 0.95620 | 6381 ft | 244 kts | 265° |
| 2026-05-04 20:12 | 51.47550 | 0.93117 | 6119 ft | 241 kts | 266° |
| 2026-05-04 20:12 | 51.47512 | 0.90440 | 6027 ft | 244 kts | 274° |
| 2026-05-04 20:13 | 51.47616 | 0.87838 | 6000 ft | 247 kts | 275° |
| 2026-05-04 20:13 | 51.47733 | 0.85051 | 5987 ft | 247 kts | 275° |
| 2026-05-04 20:13 | 51.47847 | 0.82273 | 5987 ft | 249 kts | 275° |
| 2026-05-04 20:13 | 51.47957 | 0.79512 | 5982 ft | 250 kts | 275° |
| 2026-05-04 20:14 | 51.48066 | 0.76771 | 5980 ft | 249 kts | 275° |
| 2026-05-04 20:14 | 51.48173 | 0.74016 | 5981 ft | 250 kts | 275° |
| 2026-05-04 20:14 | 51.48276 | 0.71324 | 5981 ft | 249 kts | 275° |
| 2026-05-04 20:14 | 51.48381 | 0.68534 | 5988 ft | 250 kts | 275° |
| 2026-05-04 20:15 | 51.48484 | 0.65774 | 5981 ft | 250 kts | 275° |
| 2026-05-04 20:15 | 51.48586 | 0.63014 | 5984 ft | 251 kts | 275° |
| 2026-05-04 20:15 | 51.48690 | 0.60183 | 5985 ft | 253 kts | 275° |
| 2026-05-04 20:15 | 51.48789 | 0.57427 | 5982 ft | 252 kts | 275° |
| 2026-05-04 20:16 | 51.48885 | 0.54772 | 5980 ft | 249 kts | 275° |
| 2026-05-04 20:16 | 51.48984 | 0.52002 | 5979 ft | 248 kts | 275° |
| 2026-05-04 20:16 | 51.49075 | 0.49290 | 5801 ft | 237 kts | 275° |
| 2026-05-04 20:16 | 51.48996 | 0.46681 | 5200 ft | 241 kts | 256° |
| 2026-05-04 20:17 | 51.48280 | 0.44302 | 4632 ft | 241 kts | 241° |
| 2026-05-04 20:17 | 51.47429 | 0.42016 | 4114 ft | 241 kts | 240° |
| 2026-05-04 20:17 | 51.46564 | 0.39697 | 3605 ft | 240 kts | 240° |
| 2026-05-04 20:17 | 51.45715 | 0.37423 | 3197 ft | 233 kts | 240° |
| 2026-05-04 20:18 | 51.44924 | 0.35302 | 3047 ft | 216 kts | 241° |
| 2026-05-04 20:18 | 51.44152 | 0.33206 | 3015 ft | 222 kts | 240° |
| 2026-05-04 20:18 | 51.43385 | 0.31067 | 2996 ft | 226 kts | 245° |
| 2026-05-04 20:18 | 51.43067 | 0.28735 | 2992 ft | 223 kts | 272° |
| 2026-05-04 20:19 | 51.43138 | 0.26406 | 2987 ft | 223 kts | 276° |
| 2026-05-04 20:19 | 51.43203 | 0.24653 | 2987 ft | 225 kts | 276° |
| 2026-05-04 20:19 | 51.43294 | 0.22262 | 2988 ft | 229 kts | 276° |
| 2026-05-04 20:19 | 51.43382 | 0.19874 | 2988 ft | 231 kts | 275° |
| 2026-05-04 20:20 | 51.43466 | 0.17512 | 2988 ft | 234 kts | 275° |
| 2026-05-04 20:20 | 51.43557 | 0.14859 | 2888 ft | 233 kts | 275° |
| 2026-05-04 20:20 | 51.43596 | 0.13689 | 2793 ft | 234 kts | 275° |
| 2026-05-04 20:20 | 51.43676 | 0.11225 | 2619 ft | 228 kts | 275° |
| 2026-05-04 20:21 | 51.43751 | 0.08703 | 2218 ft | 221 kts | 275° |
| 2026-05-04 20:21 | 51.43820 | 0.06377 | 2069 ft | 210 kts | 276° |
| 2026-05-04 20:21 | 51.43985 | 0.01635 | 2001 ft | 222 kts | 276° |
| 2026-05-04 20:22 | 51.44050 | -0.00332 | 1993 ft | 225 kts | 276° |
| 2026-05-04 20:22 | 51.44129 | -0.02808 | 1987 ft | 226 kts | 276° |
| 2026-05-04 20:22 | 51.44201 | -0.05102 | 1985 ft | 228 kts | 276° |
| 2026-05-04 20:22 | 51.44301 | -0.07620 | 1975 ft | 224 kts | 281° |
| 2026-05-04 20:23 | 51.44938 | -0.09705 | 1988 ft | 200 kts | 323° |
| 2026-05-04 20:23 | 51.46133 | -0.10621 | 1994 ft | 189 kts | 346° |
| 2026-05-04 20:23 | 51.47316 | -0.11182 | 2006 ft | 171 kts | 347° |
| 2026-05-04 20:23 | 51.48396 | -0.11623 | 2007 ft | 156 kts | 355° |
| 2026-05-04 20:24 | 51.49374 | -0.11195 | 1983 ft | 145 kts | 38° |
| 2026-05-04 20:24 | 51.50063 | -0.10120 | 1983 ft | 138 kts | 46° |
| 2026-05-04 20:24 | 51.50613 | -0.08941 | 1977 ft | 133 kts | 58° |
| 2026-05-04 20:24 | 51.50890 | -0.07651 | 1970 ft | 127 kts | 76° |
| 2026-05-04 20:25 | 51.50943 | -0.06296 | 1962 ft | 121 kts | 88° |
| 2026-05-04 20:25 | 51.50867 | -0.04977 | 1998 ft | 127 kts | 93° |
| 2026-05-04 20:25 | 51.50777 | -0.03625 | 1880 ft | 121 kts | 89° |
| 2026-05-04 20:25 | 51.50738 | -0.02302 | 1514 ft | 118 kts | 87° |
| 2026-05-04 20:26 | 51.50714 | -0.01049 | 1215 ft | 113 kts | 89° |
| 2026-05-04 20:26 | 51.50670 | 0.00182 | 994 ft | 114 kts | 90° |
| 2026-05-04 20:26 | 51.50635 | 0.01435 | 725 ft | 116 kts | 90° |
| 2026-05-04 20:26 | 51.50603 | 0.02719 | 454 ft | 119 kts | 90° |
| 2026-05-04 20:27 | 51.50568 | 0.04067 | 148 ft | 123 kts | 91° |
| 2026-05-04 20:27 | 51.50531 | 0.05271 | 23 ft | 86 kts | 92° |
| 2026-05-04 20:27 | 51.50511 | 0.05935 | 23 ft | 37 kts | 93° |
| 2026-05-04 20:27 | 51.50501 | 0.06083 | 23 ft | 5 kts | 192° |
| 2026-05-04 20:28 | 51.50475 | 0.06051 | 23 ft | 6 kts | 227° |
| 2026-05-04 20:28 | 51.50430 | 0.05978 | 23 ft | 9 kts | 239° |
| 2026-05-04 20:28 | 51.50428 | 0.05859 | 23 ft | 15 kts | 273° |
| 2026-05-04 20:28 | 51.50433 | 0.05674 | 23 ft | 14 kts | 274° |
| 2026-05-04 20:29 | 51.50437 | 0.05543 | 23 ft | 9 kts | 272° |
| 2026-05-04 20:29 | 51.50440 | 0.05462 | 23 ft | 8 kts | 272° |
| 2026-05-04 20:29 | 51.50443 | 0.05348 | 23 ft | 10 kts | 273° |
| 2026-05-04 20:29 | 51.50447 | 0.05233 | 23 ft | 10 kts | 275° |
| 2026-05-04 20:30 | 51.50451 | 0.05118 | 23 ft | 10 kts | 273° |
| 2026-05-04 20:30 | 51.50460 | 0.05015 | 23 ft | 9 kts | 277° |
| 2026-05-04 20:30 | 51.50463 | 0.04920 | 23 ft | 9 kts | 272° |
| 2026-05-04 20:30 | 51.50467 | 0.04821 | 23 ft | 7 kts | 272° |
| 2026-05-04 20:31 | 51.50447 | 0.04779 | 23 ft | 3 kts | 194° |
| 2026-05-04 20:31 | 51.50435 | 0.04775 | 23 ft | 0 kts | 210° |
| 2026-05-04 20:31 | 51.50433 | 0.04772 | 23 ft | 0 kts | 220° |
| 2026-05-04 20:31 | 51.50432 | 0.04770 | 23 ft | 0 kts | 219° |
| 2026-05-04 20:32 | 51.50436 | 0.04777 | 23 ft | 2 kts | 274° |
| 2026-05-04 20:32 | 51.50440 | 0.04761 | 23 ft | 0 kts | 301° |